Terminal Aerodrome Forecast
Issued by NWS

Home | Current Version | Previous Version | Graphics & Text | Print | Product List | Glossary On
Versions: 1 2 3 4 5 6 7 8 9 10 11 12 13 14 15
000
FTUS41 KCLE 250524
TAFFDY
TAF
KFDY 250524Z 2506/2606 20003KT P6SM SKC
     FM251500 22010KT P6SM SCT040 BKN150 PROB30 2601/2606 -TSRA
      BKN040CB=

USA.gov is the U.S. government's official web portal to all federal, state and local government web resources and services.